createdAt,value
2018-08-16T02:57:05.906Z,1008.81
2018-08-16T02:57:53.808Z,1008.87
2018-08-16T03:01:28.586Z,1008.81
2018-08-16T05:27:37.631Z,1008.62
2018-08-16T05:28:45.624Z,1008.59
2018-08-16T05:29:45.478Z,1008.62
2018-08-16T05:30:25.836Z,1008.65
2018-08-16T05:31:06.307Z,1008.63
2018-08-16T05:31:46.886Z,1008.67
2018-08-16T05:32:27.151Z,1008.68
2018-08-16T05:33:07.576Z,1008.71
2018-08-16T05:33:48.009Z,1008.73
2018-08-16T05:34:28.407Z,1008.67
2018-08-16T05:35:08.805Z,1008.65
2018-08-16T05:35:49.178Z,1008.67
2018-08-16T05:36:29.635Z,1008.64
2018-08-16T05:37:10.005Z,1008.67
2018-08-16T05:37:50.428Z,1008.61
2018-08-16T05:38:30.798Z,1008.65
2018-08-16T05:39:11.228Z,1008.63
2018-08-16T05:39:51.665Z,1008.63
2018-08-16T05:40:32.039Z,1008.64
2018-08-16T05:41:12.424Z,1008.65
2018-08-16T05:41:52.855Z,1008.64
2018-08-16T05:42:33.264Z,1008.67
2018-08-16T05:43:13.794Z,1008.68
2018-08-16T05:43:54.134Z,1008.66
2018-08-16T05:44:34.616Z,1008.66
2018-08-16T05:45:14.958Z,1008.72
2018-08-16T05:45:55.457Z,1008.7
2018-08-16T05:46:35.855Z,1008.73
2018-08-16T05:47:16.267Z,1008.72
2018-08-16T05:47:56.883Z,1008.67
2018-08-16T05:48:37.416Z,1008.71
2018-08-16T05:49:17.884Z,1008.68
2018-08-16T05:49:58.401Z,1008.7
2018-08-16T05:50:38.752Z,1008.69
2018-08-16T05:51:19.249Z,1008.71
2018-08-16T05:51:59.656Z,1008.71
2018-08-16T05:52:40.176Z,1008.72
2018-08-16T05:53:20.721Z,1008.69
2018-08-16T05:54:01.613Z,1008.7
2018-08-16T05:54:42.329Z,1008.65
2018-08-16T05:55:23.432Z,1008.71
2018-08-16T05:56:03.334Z,1008.67
2018-08-16T05:56:43.779Z,1008.67
2018-08-16T05:57:24.266Z,1008.68
2018-08-16T05:58:04.637Z,1008.69
2018-08-16T05:58:45.107Z,1008.69
2018-08-16T05:59:25.617Z,1008.69
2018-08-16T06:00:05.971Z,1008.66
2018-08-16T06:00:46.381Z,1008.67
2018-08-16T06:01:26.835Z,1008.67
2018-08-16T06:02:07.264Z,1008.68
2018-08-16T06:02:47.671Z,1008.66
2018-08-16T06:03:28.065Z,1008.64
2018-08-16T06:04:08.653Z,1008.61
2018-08-16T06:04:49.158Z,1008.65
2018-08-16T06:05:29.648Z,1008.66
2018-08-16T06:06:10.041Z,1008.63
2018-08-16T06:06:50.447Z,1008.67
2018-08-16T06:07:31.135Z,1008.65
2018-08-16T06:08:11.304Z,1008.66
2018-08-16T06:09:06.767Z,1008.65
2018-08-16T06:09:47.157Z,1008.62
2018-08-16T06:10:27.617Z,1008.64
2018-08-16T06:11:07.986Z,1008.61
2018-08-16T06:11:48.504Z,1008.57
2018-08-16T06:12:28.898Z,1008.55
2018-08-16T06:13:09.366Z,1008.54
2018-08-16T06:13:49.928Z,1008.51
2018-08-16T06:14:30.403Z,1008.49
2018-08-16T06:15:10.868Z,1008.51
2018-08-16T06:15:51.246Z,1008.46
2018-08-16T06:16:31.643Z,1008.46
2018-08-16T06:17:12.157Z,1008.51
2018-08-16T06:17:52.563Z,1008.49
2018-08-16T06:18:32.980Z,1008.51
2018-08-16T06:19:13.534Z,1008.44
2018-08-16T06:20:00.559Z,1008.47
2018-08-16T06:20:44.485Z,1008.43
2018-08-16T06:24:12.320Z,1008.42
2018-08-16T06:29:40.441Z,1008.36
2018-08-16T06:30:50.959Z,1008.37
2018-08-16T06:31:59.112Z,1008.35
2018-08-16T06:33:09.580Z,1008.37
2018-08-16T06:34:28.843Z,1008.39
2018-08-16T06:35:38.447Z,1008.36
2018-08-16T06:36:48.443Z,1008.39
2018-08-16T06:38:04.759Z,1008.38
2018-08-16T06:39:18.529Z,1008.34
2018-08-16T06:40:29.001Z,1008.34
2018-08-16T06:41:45.438Z,1008.37
2018-08-16T06:42:55.634Z,1008.31
2018-08-16T06:44:05.260Z,1008.32
2018-08-16T06:45:01.227Z,1008.35
2018-08-16T06:45:41.640Z,1008.28
2018-08-16T06:46:22.156Z,1008.32
2018-08-16T06:47:02.434Z,1008.29
2018-08-16T06:47:42.890Z,1008.29
2018-08-16T06:48:23.283Z,1008.29
2018-08-16T06:49:03.774Z,1008.3
2018-08-16T06:49:44.189Z,1008.3
2018-08-16T06:50:24.620Z,1008.26
2018-08-16T06:51:05.382Z,1008.31
2018-08-16T06:51:45.772Z,1008.3
2018-08-16T06:52:26.194Z,1008.32
2018-08-16T06:53:06.596Z,1008.31
2018-08-16T06:53:47.156Z,1008.29
2018-08-16T06:54:27.525Z,1008.31
2018-08-16T06:55:07.937Z,1008.3
2018-08-16T06:55:48.449Z,1008.29
2018-08-16T06:56:28.841Z,1008.32
2018-08-16T06:57:09.345Z,1008.3
2018-08-16T06:57:49.731Z,1008.3
2018-08-16T06:58:30.163Z,1008.27
2018-08-16T06:59:10.676Z,1008.25
2018-08-16T06:59:52.027Z,1008.31
2018-08-16T07:00:31.965Z,1008.26
2018-08-16T07:01:12.442Z,1008.22
2018-08-16T07:01:52.784Z,1008.22
2018-08-16T07:02:33.440Z,1008.21
2018-08-16T07:03:13.776Z,1008.2
2018-08-16T07:03:54.182Z,1008.14
2018-08-16T07:04:34.624Z,1008.21
2018-08-16T07:05:15.046Z,1008.17
2018-08-16T07:05:55.438Z,1008.19
2018-08-16T07:06:36.005Z,1008.15
2018-08-16T07:07:16.329Z,1008.2
2018-08-16T07:07:56.759Z,1008.16
2018-08-16T07:08:37.194Z,1008.18
2018-08-16T07:09:17.504Z,1008.13
2018-08-16T07:09:58.110Z,1008.16
2018-08-16T07:10:38.447Z,1008.13
2018-08-16T07:11:18.854Z,1008.12
2018-08-16T07:11:59.344Z,1008.15
2018-08-16T07:12:39.709Z,1008.17
2018-08-16T07:13:20.194Z,1008.11
2018-08-16T07:14:00.544Z,1008.13
2018-08-16T07:14:41.094Z,1008.19
2018-08-16T07:15:21.427Z,1008.16
2018-08-16T07:16:01.936Z,1008.14
2018-08-16T07:16:42.374Z,1008.17
2018-08-16T07:17:22.863Z,1008.13
2018-08-16T07:18:04.140Z,1008.13
2018-08-16T07:18:43.948Z,1008.12
2018-08-16T07:19:25.169Z,1008.1
2018-08-16T07:20:05.093Z,1008.11
2018-08-16T07:20:45.522Z,1008.07
2018-08-16T07:21:26.186Z,1008.08
2018-08-16T07:22:07.027Z,1008.1
2018-08-16T07:22:48.123Z,1008.09
2018-08-16T07:23:28.504Z,1008.06
2018-08-16T07:24:10.136Z,1008.09
2018-08-16T07:24:50.892Z,1008.07
2018-08-16T07:25:31.664Z,1008.08
2018-08-16T07:26:12.638Z,1008.11
2018-08-16T07:26:52.883Z,1008.05
2018-08-16T07:27:34.159Z,1008.07
2018-08-16T07:28:15.831Z,1008.07
2018-08-16T07:28:56.151Z,1008.06
2018-08-16T07:29:37.114Z,1008.07
2018-08-16T07:30:17.891Z,1008.1
2018-08-16T07:30:59.354Z,1008.07
2018-08-16T07:31:40.141Z,1008.1
2018-08-16T07:32:21.856Z,1008.1
2018-08-16T07:33:02.225Z,1008.05
2018-08-16T07:33:42.872Z,1008.08
2018-08-16T07:34:23.778Z,1008.1
2018-08-16T07:35:05.382Z,1008.1
2018-08-16T07:35:46.391Z,1008.04
2018-08-16T07:36:26.571Z,1008.1
2018-08-16T07:37:07.283Z,1008.06
2018-08-16T07:37:47.944Z,1008.05
2018-08-16T07:38:28.871Z,1008.08
2018-08-16T07:39:11.872Z,1008.05
2018-08-16T07:39:54.028Z,1008.08
2018-08-16T07:40:34.304Z,1008.08
2018-08-16T07:41:14.859Z,1008.09
2018-08-16T07:41:55.864Z,1008.06
2018-08-16T07:42:36.309Z,1008.08
2018-08-16T07:43:16.857Z,1008.07
2018-08-16T07:43:57.683Z,1008.1
2018-08-16T07:44:38.507Z,1008.04
2018-08-16T07:45:19.354Z,1008.1
2018-08-16T07:46:01.259Z,1008.06
2018-08-16T07:46:42.102Z,1008.09
2018-08-16T07:47:22.918Z,1008.04
2018-08-16T07:48:04.506Z,1008.09
2018-08-16T07:48:46.148Z,1008.02
2018-08-16T07:49:26.668Z,1008.02
2018-08-16T07:50:07.230Z,1008.04
2018-08-16T07:50:47.987Z,1008.03
2018-08-16T07:51:29.426Z,1008.02
2018-08-16T07:52:09.732Z,1008.03
2018-08-16T07:58:00.354Z,1008.02
2018-08-16T07:59:13.529Z,1008.08
2018-08-16T08:00:26.925Z,1008.04
2018-08-16T08:03:14.806Z,1008.08
2018-08-16T08:05:26.495Z,1008.07
2018-08-16T08:06:43.852Z,1008.08
2018-08-16T08:07:56.479Z,1008.07
2018-08-16T08:09:37.384Z,1008.05
2018-08-16T08:10:54.218Z,1008.11
2018-08-16T08:12:06.294Z,1008.12
2018-08-16T08:13:13.955Z,1008.12
2018-08-16T08:13:56.584Z,1008.14
2018-08-16T08:14:37.223Z,1008.15
2018-08-16T08:15:17.688Z,1008.12
2018-08-16T08:15:58.097Z,1008.15
2018-08-16T08:16:38.633Z,1008.16
2018-08-16T08:17:19.686Z,1008.14
2018-08-16T08:18:00.071Z,1008.16
2018-08-16T08:18:40.860Z,1008.18
2018-08-16T08:19:21.644Z,1008.14
2018-08-16T08:20:20.880Z,1008.16
2018-08-16T08:21:16.261Z,1008.15
2018-08-16T08:27:13.338Z,1008.11
2018-08-16T08:28:22.052Z,1008.12
2018-08-16T08:29:35.255Z,1008.12
2018-08-16T08:34:57.509Z,1008.12
2018-08-16T08:37:09.335Z,1008.1
2018-08-16T08:40:31.020Z,1008.14
2018-08-16T08:44:44.575Z,1008.08
2018-08-16T08:48:47.737Z,1008.01
2018-08-16T08:49:27.893Z,1008.07
2018-08-16T08:50:08.606Z,1008.01
2018-08-16T08:50:49.770Z,1008.02
2018-08-16T08:51:29.782Z,1008
2018-08-16T08:52:10.393Z,1008.05
2018-08-16T08:52:51.790Z,1008.05
2018-08-16T08:53:31.553Z,1008.02
2018-08-16T08:54:16.750Z,1008.04
2018-08-16T08:54:56.771Z,1008.02
2018-08-16T08:55:37.129Z,1008.02
2018-08-16T08:56:21.404Z,1008.04
2018-08-16T08:57:04.864Z,1008.01
2018-08-16T08:57:45.758Z,1008.02
2018-08-16T08:58:28.150Z,1007.99
2018-08-16T08:59:08.019Z,1007.97
2018-08-16T08:59:49.291Z,1007.98
2018-08-16T09:00:30.077Z,1007.98
2018-08-16T09:01:11.960Z,1007.96
2018-08-16T09:01:55.288Z,1007.94
2018-08-16T09:02:37.809Z,1007.93
2018-08-16T09:03:18.845Z,1007.9
2018-08-16T09:04:00.832Z,1007.92
2018-08-16T09:04:40.225Z,1007.91
2018-08-16T09:05:21.659Z,1007.86
2018-08-16T09:06:02.697Z,1007.86
2018-08-16T09:06:45.195Z,1007.88
2018-08-16T09:07:26.498Z,1007.85
2018-08-16T09:08:07.087Z,1007.83
2018-08-16T09:08:50.006Z,1007.86
2018-08-16T09:09:29.474Z,1007.83
2018-08-16T09:10:09.993Z,1007.82
2018-08-16T09:10:51.031Z,1007.82
2018-08-16T09:11:33.544Z,1007.84
2018-08-16T09:12:13.406Z,1007.8
2018-08-16T09:12:54.875Z,1007.82
2018-08-16T09:13:35.956Z,1007.82
2018-08-16T09:14:17.206Z,1007.83
2018-08-16T09:14:57.995Z,1007.81
2018-08-16T09:15:40.256Z,1007.8
2018-08-16T09:16:20.411Z,1007.79
2018-08-16T09:17:00.642Z,1007.78
2018-08-16T09:17:41.825Z,1007.77
2018-08-16T09:18:22.962Z,1007.75
2018-08-16T09:19:04.259Z,1007.76
2018-08-16T09:19:50.627Z,1007.77
2018-08-16T09:20:30.663Z,1007.75
2018-08-16T09:21:11.403Z,1007.75
2018-08-16T09:22:22.488Z,1007.75
2018-08-16T09:23:04.300Z,1007.68
2018-08-16T09:23:45.209Z,1007.72
2018-08-16T09:24:26.063Z,1007.71
2018-08-16T09:25:06.663Z,1007.68
2018-08-16T09:25:47.494Z,1007.7
2018-08-16T09:26:28.761Z,1007.7
2018-08-16T09:27:09.863Z,1007.7
2018-08-16T09:27:50.393Z,1007.73
2018-08-16T09:28:30.928Z,1007.72
2018-08-16T09:29:12.277Z,1007.71
2018-08-16T09:40:56.222Z,1007.57
2018-08-16T09:41:37.143Z,1007.59
2018-08-16T09:42:18.877Z,1007.57
2018-08-16T09:43:00.771Z,1007.57
2018-08-16T09:43:41.318Z,1007.51
2018-08-16T09:45:41.864Z,1007.5
2018-08-16T09:52:08.972Z,1007.37
2018-08-16T09:53:32.295Z,1007.37
2018-08-16T09:55:29.233Z,1007.34
2018-08-16T09:56:42.241Z,1007.35
2018-08-16T09:57:28.016Z,1007.34
2018-08-16T09:58:08.499Z,1007.35
2018-08-16T09:58:48.961Z,1007.31
2018-08-16T09:59:29.596Z,1007.28
2018-08-16T10:00:10.220Z,1007.3
2018-08-16T10:00:51.676Z,1007.3
2018-08-16T10:01:31.583Z,1007.3
2018-08-16T10:02:11.984Z,1007.33
2018-08-16T10:02:52.947Z,1007.27
2018-08-16T10:03:33.579Z,1007.31
2018-08-16T10:04:14.075Z,1007.33
2018-08-16T10:04:55.495Z,1007.35
2018-08-16T10:05:35.166Z,1007.34
2018-08-16T10:06:15.888Z,1007.28
2018-08-16T10:06:58.185Z,1007.33
2018-08-16T10:07:38.184Z,1007.26
2018-08-16T10:08:18.726Z,1007.25
2018-08-16T10:08:59.279Z,1007.3
2018-08-16T10:09:39.778Z,1007.22
2018-08-16T10:10:21.313Z,1007.22
2018-08-16T10:11:01.415Z,1007.22
2018-08-16T10:11:42.290Z,1007.18
2018-08-16T10:12:23.059Z,1007.21
2018-08-16T10:13:03.907Z,1007.23
2018-08-16T10:13:44.641Z,1007.22
2018-08-16T10:14:26.517Z,1007.26
2018-08-16T10:15:06.468Z,1007.24
2018-08-16T10:15:47.293Z,1007.23
2018-08-16T10:16:27.495Z,1007.22
2018-08-16T10:17:08.006Z,1007.19
2018-08-16T10:17:48.380Z,1007.15
2018-08-16T10:18:28.763Z,1007.16
2018-08-16T10:19:09.248Z,1007.12
2018-08-16T10:19:49.735Z,1007.12
2018-08-16T10:20:30.407Z,1007.17
2018-08-16T10:21:10.920Z,1007.11
2018-08-16T10:21:51.367Z,1007.08
2018-08-16T10:22:31.748Z,1007.06
2018-08-16T10:23:12.221Z,1007.04
2018-08-16T10:23:52.677Z,1007.08
2018-08-16T10:24:33.092Z,1007.05
2018-08-16T10:25:13.471Z,1007.07
2018-08-16T10:25:54.009Z,1007.05
2018-08-16T10:26:34.438Z,1007.07
2018-08-16T10:27:14.862Z,1007.07
2018-08-16T10:27:55.269Z,1007.06
2018-08-16T10:28:35.683Z,1007.08
2018-08-16T10:29:16.238Z,1007.09
2018-08-16T11:07:32.204Z,1006.71
2018-08-16T11:08:20.502Z,1006.75
2018-08-16T11:09:01.086Z,1006.74
2018-08-16T11:09:41.427Z,1006.74
2018-08-16T11:10:21.913Z,1006.74
2018-08-16T11:11:02.315Z,1006.74
2018-08-16T11:11:42.881Z,1006.71
2018-08-16T11:12:23.327Z,1006.71
2018-08-16T11:13:03.771Z,1006.71
2018-08-16T11:13:44.289Z,1006.69
2018-08-16T11:14:25.139Z,1006.7
2018-08-16T11:15:06.304Z,1006.66
2018-08-16T11:15:47.014Z,1006.68
2018-08-16T11:16:28.030Z,1006.7
2018-08-16T11:17:09.252Z,1006.68
2018-08-16T11:17:48.864Z,1006.66
2018-08-16T11:18:29.516Z,1006.66
2018-08-16T11:19:10.523Z,1006.62
2018-08-16T11:19:52.241Z,1006.62
2018-08-16T11:20:33.299Z,1006.65
2018-08-16T11:21:15.275Z,1006.38
2018-08-16T11:21:55.635Z,1006.65
2018-08-16T11:22:36.246Z,1006.65
2018-08-16T11:23:16.895Z,1006.65
2018-08-16T11:23:57.293Z,1006.64
2018-08-16T11:24:43.781Z,1006.66
2018-08-16T11:26:55.785Z,1006.64
2018-08-16T11:29:12.941Z,1006.56
2018-08-16T11:30:28.283Z,1006.56
2018-08-16T11:31:08.747Z,1006.63
2018-08-16T11:31:49.182Z,1006.58
2018-08-16T11:32:29.687Z,1006.53
2018-08-16T11:33:10.049Z,1006.53
2018-08-16T11:33:51.430Z,1006.49
2018-08-16T11:34:31.156Z,1006.5
2018-08-16T11:35:12.483Z,1006.5
2018-08-16T11:35:52.193Z,1006.51
2018-08-16T11:36:32.773Z,1006.54
2018-08-16T11:37:13.325Z,1006.51
2018-08-16T11:37:53.852Z,1006.56
2018-08-16T11:38:34.255Z,1006.52
2018-08-16T11:39:15.952Z,1006.55
2018-08-16T11:39:55.437Z,1006.53
2018-08-16T11:40:35.980Z,1006.49
2018-08-16T11:41:17.007Z,1006.53
2018-08-16T11:41:57.814Z,1006.52
2018-08-16T11:42:38.406Z,1006.51
2018-08-16T11:43:19.972Z,1006.49
2018-08-16T11:44:00.020Z,1006.48
2018-08-16T11:44:41.114Z,1006.45
2018-08-16T11:45:21.506Z,1006.44
2018-08-16T11:46:01.961Z,1006.48
2018-08-16T11:46:43.036Z,1006.47
2018-08-16T11:47:23.796Z,1006.43
2018-08-16T11:48:04.461Z,1006.42
2018-08-16T11:48:45.484Z,1006.45
2018-08-16T11:49:26.015Z,1006.46
2018-08-16T11:50:06.907Z,1006.46
2018-08-16T11:50:47.949Z,1006.45
2018-08-16T11:51:27.870Z,1006.42
2018-08-16T11:52:08.966Z,1006.4
2018-08-16T11:52:49.010Z,1006.39
2018-08-16T11:53:29.499Z,1006.36
2018-08-16T11:54:10.045Z,1006.37
2018-08-16T11:54:50.486Z,1006.36
2018-08-16T11:55:31.142Z,1006.3
2018-08-16T11:56:11.603Z,1006.37
2018-08-16T11:56:51.978Z,1006.33
2018-08-16T11:57:32.721Z,1006.34
2018-08-16T11:58:13.321Z,1006.31
2018-08-16T11:59:02.157Z,1006.3
2018-08-16T11:59:42.554Z,1006.25
2018-08-16T12:00:23.004Z,1006.25
2018-08-16T12:01:03.427Z,1006.27
2018-08-16T12:01:43.848Z,1006.28
2018-08-16T12:02:24.229Z,1006.25
2018-08-16T12:03:04.703Z,1006.24
2018-08-16T12:03:45.099Z,1006.28
2018-08-16T12:04:25.523Z,1006.21
2018-08-16T12:05:05.955Z,1006.2
2018-08-16T12:05:46.755Z,1006.14
2018-08-16T12:06:27.149Z,1006.16
2018-08-16T12:07:07.694Z,1006.16
2018-08-16T12:07:48.071Z,1006.17
2018-08-16T12:08:28.632Z,1006.16
2018-08-16T12:09:09.117Z,1006.11
2018-08-16T12:09:49.489Z,1006.13
2018-08-16T12:10:29.950Z,1006.14
2018-08-16T12:11:10.393Z,1006.16
2018-08-16T12:11:50.785Z,1006.18
2018-08-16T12:12:31.181Z,1006.16
2018-08-16T12:13:11.618Z,1006.13
2018-08-16T12:13:52.049Z,1006.13
2018-08-16T12:14:32.489Z,1006.13
2018-08-16T12:15:12.937Z,1006.11
2018-08-16T12:15:53.330Z,1006.14
2018-08-16T12:16:33.840Z,1006.21
2018-08-16T12:17:14.304Z,1006.15
2018-08-16T12:17:54.816Z,1006.15
2018-08-16T12:18:35.322Z,1006.14
2018-08-16T12:19:15.959Z,1006.12
2018-08-16T12:19:57.020Z,1006.08
2018-08-16T12:20:36.932Z,1006.03
2018-08-16T12:21:17.371Z,1006.04
2018-08-16T12:21:57.749Z,1006.04
2018-08-16T12:22:38.894Z,1006.02
2018-08-16T12:23:18.991Z,1006.04
2018-08-16T12:23:59.423Z,1006.03
2018-08-16T12:24:39.860Z,1006.05
2018-08-16T12:25:20.459Z,1006.02
2018-08-16T12:26:01.472Z,1006.01
2018-08-16T12:26:41.961Z,1005.99
2018-08-16T12:27:22.146Z,1006
2018-08-16T12:28:02.511Z,1006.01
2018-08-16T12:28:42.945Z,1006
2018-08-16T12:29:23.551Z,1005.95
2018-08-16T12:30:03.974Z,1005.93
2018-08-16T12:30:44.490Z,1005.93
2018-08-16T12:31:24.925Z,1005.94
2018-08-16T12:32:05.360Z,1005.9
2018-08-16T12:32:45.969Z,1005.94
2018-08-16T12:33:26.512Z,1005.91
2018-08-16T12:34:06.934Z,1005.86
2018-08-16T12:34:47.347Z,1005.81
2018-08-16T12:35:27.929Z,1005.81
2018-08-16T12:36:08.469Z,1005.84
2018-08-16T12:36:48.979Z,1005.78
2018-08-16T12:37:29.644Z,1005.79
2018-08-16T12:38:13.288Z,1005.78
2018-08-16T12:38:53.934Z,1005.8
2018-08-16T12:39:34.431Z,1005.81
2018-08-16T12:40:15.371Z,1005.79
2018-08-16T12:40:59.363Z,1005.75
2018-08-16T12:43:11.657Z,1005.75
2018-08-16T12:43:51.719Z,1005.75
2018-08-16T12:44:32.264Z,1005.73
2018-08-16T12:45:12.892Z,1005.74
2018-08-16T12:45:53.325Z,1005.73
2018-08-16T12:46:36.999Z,1005.72
2018-08-16T12:47:17.986Z,1005.73
2018-08-16T12:47:58.620Z,1005.73
2018-08-16T12:48:38.970Z,1005.71
2018-08-16T12:49:19.448Z,1005.7
2018-08-16T12:49:59.904Z,1005.7
2018-08-16T12:50:40.344Z,1005.67
2018-08-16T12:51:20.866Z,1005.68
2018-08-16T12:52:01.461Z,1005.7
2018-08-16T12:52:43.476Z,1005.69
2018-08-16T12:53:38.973Z,1005.62
2018-08-16T12:56:22.390Z,1005.61
2018-08-16T12:57:02.077Z,1005.62
2018-08-16T12:57:43.801Z,1005.6
2018-08-16T12:58:24.427Z,1005.59
2018-08-16T12:59:04.911Z,1005.6
2018-08-16T12:59:45.371Z,1005.57
2018-08-16T13:00:25.827Z,1005.54
2018-08-16T13:01:06.503Z,1005.62
2018-08-16T13:01:47.055Z,1005.62
2018-08-16T13:02:27.610Z,1005.61
2018-08-16T13:03:09.712Z,1005.6
2018-08-16T13:03:49.895Z,1005.57
2018-08-16T13:04:30.360Z,1005.55
2018-08-16T13:05:12.275Z,1005.59
2018-08-16T13:05:53.228Z,1005.56
2018-08-16T13:06:33.851Z,1005.54
2018-08-16T13:07:15.536Z,1005.54
2018-08-16T13:09:44.169Z,1005.57
2018-08-16T13:13:07.363Z,1005.54
2018-08-16T13:13:48.370Z,1005.53
2018-08-16T13:14:28.657Z,1005.55
2018-08-16T13:15:09.173Z,1005.5
2018-08-16T13:15:50.207Z,1005.52
2018-08-16T13:16:31.340Z,1005.51
2018-08-16T13:17:12.530Z,1005.51
2018-08-16T13:17:53.004Z,1005.5
2018-08-16T13:18:33.602Z,1005.53
2018-08-16T13:19:14.125Z,1005.49
2018-08-16T13:19:55.277Z,1005.5
2018-08-16T13:20:36.480Z,1005.5
2018-08-16T13:21:16.896Z,1005.47
2018-08-16T13:21:57.316Z,1005.5
2018-08-16T13:22:39.893Z,1005.51
2018-08-16T13:23:25.155Z,1005.49
2018-08-16T13:24:07.831Z,1005.51
2018-08-16T13:24:46.721Z,1005.49
2018-08-16T13:25:27.117Z,1005.52
2018-08-16T13:26:07.556Z,1005.47
2018-08-16T13:26:47.995Z,1005.48
2018-08-16T13:27:28.404Z,1005.5
2018-08-16T13:28:08.855Z,1005.46
2018-08-16T13:28:49.609Z,1005.42
2018-08-16T13:29:29.930Z,1005.36
2018-08-16T13:30:10.465Z,1005.42
2018-08-16T13:30:50.938Z,1005.37
2018-08-16T13:31:31.386Z,1005.35
2018-08-16T13:32:12.001Z,1005.37
2018-08-16T13:32:53.187Z,1005.33
2018-08-16T13:33:33.588Z,1005.32
2018-08-16T13:34:14.209Z,1005.29
2018-08-16T13:34:54.859Z,1005.32
2018-08-16T13:35:35.376Z,1005.33
2018-08-16T13:36:15.861Z,1005.31
2018-08-16T13:36:56.421Z,1005.27
2018-08-16T13:37:36.832Z,1005.26
2018-08-16T13:38:17.474Z,1005.23
2018-08-16T13:38:57.935Z,1005.27
2018-08-16T13:39:38.508Z,1005.28
2018-08-16T13:40:18.892Z,1005.24
2018-08-16T13:40:59.308Z,1005.25
2018-08-16T13:41:40.365Z,1005.27
2018-08-16T13:42:20.582Z,1005.22
2018-08-16T13:43:00.968Z,1005.23
2018-08-16T13:43:41.722Z,1005.19
2018-08-16T13:44:22.795Z,1005.19
2018-08-16T13:45:09.886Z,1005.19
2018-08-16T13:45:52.369Z,1005.17
2018-08-16T13:46:32.695Z,1005.19
2018-08-16T13:47:13.388Z,1005.17
2018-08-16T13:47:53.964Z,1005.12
2018-08-16T13:48:34.785Z,1005.12
2018-08-16T13:49:15.899Z,1005.13
2018-08-16T13:49:55.918Z,1005.08
2018-08-16T13:50:36.622Z,1005.1
2018-08-16T13:51:17.390Z,1005.12
2018-08-16T13:51:59.522Z,1005.09
2018-08-16T13:52:40.418Z,1005.09
2018-08-16T13:53:21.602Z,1005.06
2018-08-16T13:54:01.452Z,1005.08
2018-08-16T13:54:43.005Z,1005.14
2018-08-16T13:55:23.384Z,1005.12
2018-08-16T13:56:04.076Z,1005.06
2018-08-16T13:56:45.349Z,1005.06
2018-08-16T13:57:26.882Z,1005.03
2018-08-16T13:58:07.524Z,1005.08
2018-08-16T13:58:48.360Z,1005.03
2018-08-16T13:59:28.403Z,1005.03
2018-08-16T14:00:08.943Z,1005
2018-08-16T14:00:49.870Z,1005.02
2018-08-16T14:01:31.392Z,1004.97
2018-08-16T14:02:11.421Z,1004.98
2018-08-16T14:02:51.940Z,1005.01
2018-08-16T14:03:32.412Z,1004.97
2018-08-16T14:04:13.242Z,1004.98
2018-08-16T14:04:53.997Z,1005
2018-08-16T14:05:35.397Z,1004.98
2018-08-16T14:06:15.276Z,1004.97
2018-08-16T14:06:55.797Z,1004.94
2018-08-16T14:07:36.423Z,1005
2018-08-16T14:08:16.930Z,1005.03
2018-08-16T14:08:57.475Z,1004.97
2018-08-16T14:09:37.964Z,1004.98
2018-08-16T14:10:19.498Z,1004.96
2018-08-16T14:11:00.120Z,1004.97
2018-08-16T14:14:52.915Z,1004.97
2018-08-16T14:16:03.431Z,1004.94
2018-08-16T14:16:54.233Z,1004.95
2018-08-16T14:17:34.551Z,1004.96
2018-08-16T14:18:15.697Z,1005
2018-08-16T14:18:59.057Z,1005.02
2018-08-16T14:19:39.646Z,1004.99
2018-08-16T14:20:22.055Z,1005
2018-08-16T14:21:02.634Z,1004.99
2018-08-16T14:21:46.537Z,1004.96
2018-08-16T14:22:27.958Z,1004.96
2018-08-16T14:23:08.358Z,1005
2018-08-16T14:23:48.793Z,1004.93
2018-08-16T14:24:29.339Z,1004.94
2018-08-16T14:25:10.489Z,1004.92
2018-08-16T14:25:51.475Z,1004.92
2018-08-16T14:26:31.970Z,1004.93
2018-08-16T14:27:13.193Z,1004.94
2018-08-16T14:27:53.535Z,1004.9
2018-08-16T14:28:34.398Z,1004.87
2018-08-16T14:29:15.632Z,1004.87
2018-08-16T14:29:57.226Z,1004.86
2018-08-16T14:30:37.168Z,1004.87
2018-08-16T14:31:18.328Z,1004.84
2018-08-16T14:31:59.323Z,1004.85
2018-08-16T14:32:39.708Z,1004.79
2018-08-16T14:33:20.430Z,1004.77
2018-08-16T14:34:00.901Z,1004.76
2018-08-16T14:34:41.855Z,1004.7
2018-08-16T14:35:23.220Z,1004.71
2018-08-16T14:36:03.106Z,1004.68
2018-08-16T14:36:44.726Z,1004.67
2018-08-16T14:37:25.720Z,1004.69
2018-08-16T14:38:07.222Z,1004.66
2018-08-16T14:38:47.762Z,1004.67
2018-08-16T14:39:27.777Z,1004.65
2018-08-16T14:40:09.332Z,1004.66
2018-08-16T14:40:49.187Z,1004.69
2018-08-16T14:41:29.629Z,1004.65
2018-08-16T14:42:10.300Z,1004.66
2018-08-16T14:42:51.081Z,1004.66
2018-08-16T14:43:31.584Z,1004.66
2018-08-16T14:44:12.136Z,1004.65
2018-08-16T14:44:52.778Z,1004.67
2018-08-16T14:45:33.207Z,1004.66
2018-08-16T14:46:13.653Z,1004.65
2018-08-16T14:46:54.200Z,1004.64
2018-08-16T14:47:34.699Z,1004.67
2018-08-16T14:48:15.168Z,1004.67
2018-08-16T14:48:55.608Z,1004.67
2018-08-16T14:49:39.681Z,1004.69
2018-08-16T14:50:19.463Z,1004.69
2018-08-16T14:51:00.583Z,1004.7
2018-08-16T14:51:41.617Z,1004.69
2018-08-16T14:52:23.052Z,1004.67
2018-08-16T14:53:04.243Z,1004.65
2018-08-16T14:53:44.339Z,1004.69
2018-08-16T14:54:24.899Z,1004.69
2018-08-16T14:55:05.287Z,1004.65
2018-08-16T14:55:45.812Z,1004.65
2018-08-16T14:56:26.397Z,1004.61
2018-08-16T14:57:07.047Z,1004.59
2018-08-16T14:57:47.543Z,1004.57
2018-08-16T14:58:28.474Z,1004.52
2018-08-16T14:59:09.930Z,1004.59
2018-08-16T14:59:51.624Z,1004.59
2018-08-16T15:00:32.079Z,1004.56
2018-08-16T15:01:13.525Z,1004.57
2018-08-16T15:01:54.390Z,1004.54
2018-08-16T15:02:35.587Z,1004.53
2018-08-16T15:03:16.935Z,1004.55
2018-08-16T15:03:57.373Z,1004.56
2018-08-16T15:04:37.915Z,1004.53
2018-08-16T15:05:20.346Z,1004.53
2018-08-16T15:06:00.835Z,1004.5
2018-08-16T15:06:41.361Z,1004.54
2018-08-16T15:07:23.448Z,1004.51
2018-08-16T15:08:10.906Z,1004.49
2018-08-16T15:08:51.259Z,1004.47
2018-08-16T15:09:42.837Z,1004.52
2018-08-16T15:10:23.183Z,1004.44
2018-08-16T15:11:06.285Z,1004.45
2018-08-16T15:11:48.133Z,1004.47
2018-08-16T15:12:29.733Z,1004.51
2018-08-16T15:13:09.541Z,1004.51
2018-08-16T15:13:49.963Z,1004.51
2018-08-16T15:14:30.472Z,1004.47
2018-08-16T15:15:11.722Z,1004.47
2018-08-16T15:15:54.037Z,1004.43
2018-08-16T15:16:35.353Z,1004.46
2018-08-16T15:17:16.220Z,1004.48
2018-08-16T15:17:56.563Z,1004.52
2018-08-16T15:18:37.227Z,1004.51
2018-08-16T15:19:17.858Z,1004.45
2018-08-16T15:19:58.379Z,1004.48
2018-08-16T15:20:38.795Z,1004.49
2018-08-16T15:21:19.262Z,1004.45
2018-08-16T15:21:59.717Z,1004.48
2018-08-16T15:22:40.940Z,1004.5
2018-08-16T15:23:20.997Z,1004.53
2018-08-16T15:24:01.450Z,1004.51
2018-08-16T15:24:41.905Z,1004.55
2018-08-16T15:25:22.239Z,1004.51
2018-08-16T15:26:02.746Z,1004.53
2018-08-16T15:26:43.124Z,1004.51
2018-08-16T15:27:23.584Z,1004.5
2018-08-16T15:28:04.099Z,1004.49
2018-08-16T15:28:44.512Z,1004.5
2018-08-16T15:29:25.002Z,1004.49
2018-08-16T15:30:05.428Z,1004.47
2018-08-16T15:30:46.046Z,1004.44
2018-08-16T15:31:26.553Z,1004.46
2018-08-16T15:32:07.031Z,1004.45
2018-08-16T15:32:47.492Z,1004.38
2018-08-16T15:33:28.026Z,1004.42
2018-08-16T15:34:08.566Z,1004.44
2018-08-16T15:34:49.801Z,1004.44
2018-08-16T15:35:30.344Z,1004.43
2018-08-16T15:36:10.721Z,1004.44
2018-08-16T15:36:51.385Z,1004.38
2018-08-16T15:37:31.872Z,1004.35
2018-08-16T15:38:12.230Z,1004.36
2018-08-16T15:38:52.746Z,1004.41
2018-08-16T15:39:33.206Z,1004.36
2018-08-16T15:40:13.613Z,1004.39
2018-08-16T15:40:54.127Z,1004.37
2018-08-16T15:41:34.705Z,1004.36
2018-08-16T15:42:15.166Z,1004.35
2018-08-16T15:42:55.596Z,1004.33
2018-08-16T15:43:36.003Z,1004.32
2018-08-16T15:44:16.414Z,1004.33
2018-08-16T15:44:56.928Z,1004.31
2018-08-16T15:45:37.356Z,1004.32
2018-08-16T15:46:17.916Z,1004.31
2018-08-16T15:46:59.790Z,1004.28